Time;durP1;ratioP1;P1;durP2;ratioP2;P2;SDS_P1;SDS_P2;PMS_P1;PMS_P2;Temp;Humidity;BMP_temperature;BMP_pressure;BME280_temperature;BME280_humidity;BME280_pressure;Samples;Min_cycle;Max_cycle;Signal;HPM_P1;HPM_P2
2022/11/30 00:00:04;;;;;;;36.55;14.52;;;6.90;99.90;;;;;;4218030;28;20066;-86
2022/11/30 00:02:06;;;;;;;36.63;14.05;;;7.00;99.90;;;;;;4227047;28;20127;-87
2022/11/30 00:04:07;;;;;;;36.22;14.32;;;6.90;99.90;;;;;;4218207;28;20056;-87
2022/11/30 00:06:10;;;;;;;43.10;15.48;;;6.90;99.90;;;;;;4219828;28;20051;-87
2022/11/30 00:08:11;;;;;;;39.50;15.27;;;6.90;99.90;;;;;;4219029;28;20047;-87
2022/11/30 00:10:13;;;;;;;36.65;14.55;;;6.90;99.90;;;;;;4219216;28;20048;-87
2022/11/30 00:12:15;;;;;;;40.97;15.10;;;6.90;99.90;;;;;;4217770;28;20071;-87
2022/11/30 00:14:16;;;;;;;42.63;15.18;;;6.90;99.90;;;;;;4201103;28;20078;-86
2022/11/30 00:16:16;;;;;;;35.45;14.10;;;6.90;99.90;;;;;;4217804;28;20477;-87
2022/11/30 00:18:18;;;;;;;39.03;15.10;;;6.90;99.90;;;;;;4219334;28;20040;-87
2022/11/30 00:20:20;;;;;;;38.65;15.90;;;6.90;99.90;;;;;;4200947;28;20060;-87
2022/11/30 00:22:21;;;;;;;42.65;15.25;;;6.80;99.90;;;;;;4217532;28;20566;-86
2022/11/30 00:24:21;;;;;;;43.92;15.80;;;6.80;99.90;;;;;;4217556;28;20052;-87
2022/11/30 00:26:23;;;;;;;44.13;15.30;;;6.90;99.90;;;;;;4217834;28;20043;-87
2022/11/30 00:28:24;;;;;;;37.55;14.93;;;6.80;99.90;;;;;;4217199;28;20565;-87
2022/11/30 00:30:25;;;;;;;40.88;15.75;;;6.80;99.90;;;;;;4217449;28;20048;-86
2022/11/30 00:32:27;;;;;;;40.20;15.57;;;6.80;99.90;;;;;;4218332;28;20050;-87
2022/11/30 00:34:28;;;;;;;44.83;14.35;;;6.70;99.90;;;;;;4219156;28;20051;-87
2022/11/30 00:36:29;;;;;;;43.97;14.98;;;6.70;99.90;;;;;;4218489;28;20044;-87
2022/11/30 00:38:32;;;;;;;39.97;15.45;;;6.60;99.90;;;;;;4219254;28;20055;-87
2022/11/30 00:40:42;;;;;;;43.60;14.85;;;6.70;99.90;;;;;;4217477;28;20060;-86
2022/11/30 00:42:43;;;;;;;49.70;16.65;;;6.60;99.90;;;;;;4217398;28;20090;-86
2022/11/30 00:44:43;;;;;;;43.72;14.88;;;6.70;99.90;;;;;;4218779;28;20040;-86
2022/11/30 00:46:44;;;;;;;42.10;15.95;;;6.70;99.90;;;;;;4218202;28;20174;-86
2022/11/30 00:48:46;;;;;;;43.42;15.63;;;6.60;99.90;;;;;;4219070;28;20044;-86
2022/11/30 00:50:48;;;;;;;39.85;16.13;;;6.60;99.90;;;;;;4228774;28;20055;-85
2022/11/30 00:52:49;;;;;;;42.58;14.77;;;6.70;99.90;;;;;;4235654;28;20040;-87
2022/11/30 00:54:50;;;;;;;44.58;16.30;;;6.70;99.90;;;;;;4236689;28;20047;-88
2022/11/30 00:56:51;;;;;;;44.90;15.70;;;6.60;99.90;;;;;;4235701;28;20070;-86
2022/11/30 00:58:52;;;;;;;42.13;15.63;;;6.70;99.90;;;;;;4200700;28;20078;-88
2022/11/30 01:00:53;;;;;;;37.78;14.45;;;6.70;99.90;;;;;;4236062;28;20050;-87
2022/11/30 01:02:55;;;;;;;48.15;15.55;;;6.70;99.90;;;;;;4217852;28;20485;-87
2022/11/30 01:04:56;;;;;;;35.55;13.23;;;6.70;99.90;;;;;;4237183;28;20043;-88
2022/11/30 01:06:57;;;;;;;42.40;15.70;;;6.70;99.90;;;;;;4236622;28;20054;-87
2022/11/30 01:08:59;;;;;;;39.47;15.15;;;6.80;99.90;;;;;;4237008;28;20031;-87
2022/11/30 01:11:09;;;;;;;41.88;14.65;;;6.70;99.90;;;;;;4237226;28;20039;-87
2022/11/30 01:13:13;;;;;;;42.95;14.95;;;6.80;99.90;;;;;;4217097;28;20079;-87
2022/11/30 01:15:15;;;;;;;42.13;14.77;;;6.70;99.90;;;;;;4234622;28;20047;-87
2022/11/30 01:17:16;;;;;;;34.70;15.27;;;6.70;99.90;;;;;;4234688;28;20173;-86
2022/11/30 01:19:17;;;;;;;38.00;13.90;;;6.70;99.90;;;;;;4235330;28;20043;-86
2022/11/30 01:21:21;;;;;;;38.38;14.98;;;6.70;99.90;;;;;;4235458;28;20047;-86
2022/11/30 01:23:22;;;;;;;32.40;14.73;;;6.70;99.90;;;;;;4216732;28;20488;-86
2022/11/30 01:25:23;;;;;;;37.75;15.93;;;6.70;99.90;;;;;;4235231;28;20132;-86
2022/11/30 01:27:23;;;;;;;34.15;14.02;;;6.70;99.90;;;;;;4217063;28;20044;-86
2022/11/30 01:29:24;;;;;;;39.58;14.68;;;6.60;99.90;;;;;;4216594;28;20130;-86
2022/11/30 01:31:25;;;;;;;40.38;15.30;;;6.60;99.90;;;;;;4217110;28;20131;-86
2022/11/30 01:33:26;;;;;;;35.08;14.05;;;6.60;99.90;;;;;;4216676;28;20069;-86
2022/11/30 01:35:27;;;;;;;32.72;13.98;;;6.60;99.90;;;;;;4217222;28;20075;-86
2022/11/30 01:37:28;;;;;;;34.17;13.30;;;6.50;99.90;;;;;;4216481;28;20047;-86
2022/11/30 01:39:30;;;;;;;34.90;14.88;;;6.60;99.90;;;;;;4216796;28;20040;-86
2022/11/30 01:41:31;;;;;;;32.05;13.32;;;6.50;99.90;;;;;;4235062;28;20065;-86
2022/11/30 01:43:42;;;;;;;32.55;13.38;;;6.60;99.90;;;;;;4235245;28;20078;-86
2022/11/30 01:45:44;;;;;;;32.75;12.32;;;6.50;99.90;;;;;;4217005;28;20106;-86
2022/11/30 01:47:51;;;;;;;32.42;12.98;;;6.60;99.90;;;;;;4216313;28;20049;-85
2022/11/30 01:50:08;;;;;;;32.47;13.07;;;6.50;99.90;;;;;;4234672;28;20086;-86
2022/11/30 01:52:37;;;;;;;30.25;13.02;;;6.50;99.90;;;;;;4199715;28;20477;-86
2022/11/30 01:54:50;;;;;;;31.98;13.43;;;6.50;99.90;;;;;;4234596;28;20383;-86
2022/11/30 01:56:56;;;;;;;30.50;12.88;;;6.50;99.90;;;;;;4234462;28;20093;-87
2022/11/30 01:58:56;;;;;;;30.42;12.93;;;6.50;99.90;;;;;;4233920;28;20132;-87
2022/11/30 02:00:58;;;;;;;37.55;14.57;;;6.50;99.90;;;;;;4215902;28;20044;-88
2022/11/30 02:03:16;;;;;;;30.42;12.20;;;6.50;99.90;;;;;;4198487;28;20044;-86
2022/11/30 02:05:17;;;;;;;30.88;12.75;;;6.50;99.90;;;;;;4199773;28;20051;-87
2022/11/30 02:07:18;;;;;;;31.98;13.35;;;6.50;99.90;;;;;;4233831;28;20035;-87
2022/11/30 02:09:21;;;;;;;28.98;12.65;;;6.50;99.90;;;;;;4215836;28;20055;-87
2022/11/30 02:11:25;;;;;;;31.60;13.30;;;6.50;99.90;;;;;;4233666;28;20056;-87
2022/11/30 02:14:07;;;;;;;34.35;14.02;;;6.50;99.90;;;;;;4232945;28;20377;-87
2022/11/30 02:16:11;;;;;;;32.00;12.73;;;6.50;99.90;;;;;;4211554;27;20051;-87
2022/11/30 02:18:23;;;;;;;29.33;13.02;;;6.60;99.90;;;;;;4249392;27;20086;-87
2022/11/30 02:20:53;;;;;;;34.42;13.70;;;6.60;99.90;;;;;;4250080;27;20104;-87
2022/11/30 02:23:24;;;;;;;30.45;12.82;;;6.60;99.90;;;;;;4232332;28;20051;-87
2022/11/30 02:25:46;;;;;;;30.48;14.00;;;6.60;99.90;;;;;;4232603;28;20788;-87
2022/11/30 02:28:29;;;;;;;31.35;13.65;;;6.60;99.90;;;;;;4232413;28;20047;-87
2022/11/30 02:30:34;;;;;;;32.58;13.75;;;6.60;99.90;;;;;;4250882;27;20042;-87
2022/11/30 02:32:44;;;;;;;38.13;14.52;;;6.60;99.90;;;;;;4229243;28;20036;-87
2022/11/30 02:34:47;;;;;;;26.75;12.65;;;6.60;99.90;;;;;;4198576;28;20075;-87
2022/11/30 02:36:47;;;;;;;31.55;14.00;;;6.60;99.90;;;;;;4215798;28;20109;-87
2022/11/30 02:38:49;;;;;;;31.48;14.80;;;6.70;99.90;;;;;;4233473;28;20039;-87
2022/11/30 02:40:50;;;;;;;33.15;14.02;;;6.60;99.90;;;;;;4198927;28;20052;-87
2022/11/30 02:42:53;;;;;;;36.83;14.70;;;6.60;99.90;;;;;;4198486;28;20045;-87
2022/11/30 02:44:55;;;;;;;30.23;13.32;;;6.60;99.90;;;;;;4233619;28;20062;-87
2022/11/30 02:47:30;;;;;;;36.28;14.73;;;6.60;99.90;;;;;;4198787;28;20511;-87
2022/11/30 02:49:45;;;;;;;32.47;13.80;;;6.60;99.90;;;;;;4199003;28;20124;-87
2022/11/30 02:51:48;;;;;;;29.35;13.18;;;6.60;99.90;;;;;;4214945;28;20410;-87
2022/11/30 02:53:48;;;;;;;29.58;12.57;;;6.70;99.90;;;;;;4215614;28;20055;-87
2022/11/30 02:55:49;;;;;;;27.65;12.10;;;6.60;99.90;;;;;;4215491;28;20127;-87
2022/11/30 02:57:51;;;;;;;29.95;13.18;;;6.60;99.90;;;;;;4215345;28;20046;-87
2022/11/30 02:59:52;;;;;;;28.80;12.27;;;6.60;99.90;;;;;;4233361;28;20046;-87
2022/11/30 03:01:53;;;;;;;38.00;13.50;;;6.60;99.90;;;;;;4215225;28;20047;-87
2022/11/30 03:03:54;;;;;;;29.42;13.27;;;6.60;99.90;;;;;;4233448;28;20039;-87
2022/11/30 03:05:54;;;;;;;35.10;13.90;;;6.90;99.90;;;;;;4233402;28;20546;-87
2022/11/30 03:07:55;;;;;;;39.45;15.50;;;6.60;99.90;;;;;;4233300;28;20042;-87
2022/11/30 03:09:56;;;;;;;31.80;14.20;;;6.70;99.90;;;;;;4233454;28;20108;-87
2022/11/30 03:11:58;;;;;;;38.20;15.27;;;6.60;99.90;;;;;;4215166;28;20056;-87
2022/11/30 03:13:59;;;;;;;37.38;13.60;;;6.70;99.90;;;;;;4215708;28;20044;-87
2022/11/30 03:16:10;;;;;;;34.05;14.02;;;6.70;99.90;;;;;;4215208;28;20496;-87
2022/11/30 03:18:11;;;;;;;32.67;13.48;;;6.70;99.90;;;;;;4198663;28;20064;-88
2022/11/30 03:20:11;;;;;;;30.48;15.25;;;6.70;99.90;;;;;;4233037;28;20492;-87
2022/11/30 03:22:12;;;;;;;35.38;14.90;;;6.70;99.90;;;;;;4198885;28;20040;-87
2022/11/30 03:24:13;;;;;;;31.40;14.35;;;6.70;99.90;;;;;;4233152;28;20054;-87
2022/11/30 03:26:14;;;;;;;33.00;14.10;;;6.60;99.90;;;;;;4198322;28;20127;-87
2022/11/30 03:28:15;;;;;;;34.13;14.13;;;6.60;99.90;;;;;;4215197;28;20058;-87
2022/11/30 03:30:16;;;;;;;30.35;13.35;;;6.70;99.90;;;;;;4217734;28;20044;-87
2022/11/30 03:32:18;;;;;;;31.50;13.82;;;6.70;99.90;;;;;;4236557;28;20048;-87
2022/11/30 03:34:20;;;;;;;31.00;13.45;;;6.70;99.90;;;;;;4218355;28;20412;-87
2022/11/30 03:36:21;;;;;;;32.90;13.85;;;6.70;99.90;;;;;;4218425;28;20409;-86
2022/11/30 03:38:22;;;;;;;33.60;13.68;;;6.60;99.90;;;;;;4219477;28;20522;-86
2022/11/30 03:40:23;;;;;;;25.98;13.40;;;6.70;99.90;;;;;;4231590;28;20089;-86
2022/11/30 03:42:24;;;;;;;32.45;14.13;;;6.60;99.90;;;;;;4235805;28;20044;-85
2022/11/30 03:44:24;;;;;;;29.25;12.73;;;6.70;99.90;;;;;;4235549;28;20101;-86
2022/11/30 03:46:26;;;;;;;32.03;13.52;;;6.70;99.90;;;;;;4253572;27;20043;-85
2022/11/30 03:48:27;;;;;;;30.05;13.45;;;6.70;99.90;;;;;;4235542;28;20112;-86
2022/11/30 03:50:28;;;;;;;34.25;14.77;;;6.70;99.90;;;;;;4235743;28;20099;-86
2022/11/30 03:52:28;;;;;;;25.30;11.52;;;6.70;99.90;;;;;;4235490;28;20492;-86
2022/11/30 03:54:31;;;;;;;29.05;13.88;;;6.70;99.90;;;;;;4235384;28;20059;-86
2022/11/30 03:56:32;;;;;;;28.90;11.85;;;6.70;99.90;;;;;;4218632;28;20486;-85
2022/11/30 03:58:34;;;;;;;31.13;12.50;;;6.70;99.90;;;;;;4217783;28;20101;-86
2022/11/30 04:00:35;;;;;;;32.22;13.20;;;6.70;99.90;;;;;;4218845;28;20051;-86
2022/11/30 04:02:36;;;;;;;32.17;13.10;;;6.70;99.90;;;;;;4253660;27;20396;-86
2022/11/30 04:04:37;;;;;;;28.33;13.95;;;6.70;99.90;;;;;;4218693;28;20052;-86
2022/11/30 04:06:39;;;;;;;28.83;13.38;;;6.70;99.90;;;;;;4235317;28;20145;-85
2022/11/30 04:08:40;;;;;;;34.42;14.93;;;6.70;99.90;;;;;;4235382;28;20453;-86
2022/11/30 04:10:41;;;;;;;32.85;13.10;;;6.70;99.90;;;;;;4253782;27;20043;-86
2022/11/30 04:12:42;;;;;;;31.17;13.77;;;6.70;99.90;;;;;;4234101;28;20050;-86
2022/11/30 04:14:42;;;;;;;26.52;13.13;;;6.70;99.90;;;;;;4234978;28;20051;-86
2022/11/30 04:16:43;;;;;;;29.23;13.60;;;6.70;99.90;;;;;;4253059;27;20100;-86
2022/11/30 04:18:44;;;;;;;29.73;14.02;;;6.70;99.90;;;;;;4253485;27;20043;-86
2022/11/30 04:20:46;;;;;;;27.92;13.23;;;6.70;99.90;;;;;;4234827;28;20123;-86
2022/11/30 04:22:47;;;;;;;31.98;12.90;;;6.70;99.90;;;;;;4234811;28;20044;-86
2022/11/30 04:24:47;;;;;;;32.90;14.30;;;7.00;99.90;;;;;;4252803;27;20035;-86
2022/11/30 04:26:48;;;;;;;32.38;13.90;;;6.70;99.90;;;;;;4252803;27;20043;-86
2022/11/30 04:28:49;;;;;;;28.42;12.48;;;6.70;99.90;;;;;;4252819;27;20069;-86
2022/11/30 04:30:49;;;;;;;31.45;13.20;;;6.70;99.90;;;;;;4234436;28;20047;-87
2022/11/30 04:32:50;;;;;;;36.33;14.50;;;7.00;99.90;;;;;;4234045;28;20043;-86
2022/11/30 04:34:51;;;;;;;37.42;15.75;;;6.70;99.90;;;;;;4253339;27;20051;-86
2022/11/30 04:36:52;;;;;;;34.72;14.23;;;6.70;99.90;;;;;;4252678;27;20039;-86
2022/11/30 04:38:53;;;;;;;38.03;13.70;;;6.70;99.90;;;;;;4252622;27;20043;-86
2022/11/30 04:40:53;;;;;;;36.72;13.07;;;6.70;99.90;;;;;;4233215;28;20054;-86
2022/11/30 04:42:54;;;;;;;37.17;14.65;;;6.70;99.90;;;;;;4234228;28;20043;-86
2022/11/30 04:44:55;;;;;;;39.15;15.05;;;6.70;99.90;;;;;;4252600;27;20077;-86
2022/11/30 04:46:56;;;;;;;38.08;14.45;;;6.70;99.90;;;;;;4252504;27;20107;-86
2022/11/30 04:48:57;;;;;;;44.08;14.38;;;6.70;99.90;;;;;;4234279;28;20055;-87
2022/11/30 04:51:06;;;;;;;41.30;14.20;;;6.70;99.90;;;;;;4234685;28;20047;-86
2022/11/30 04:53:08;;;;;;;43.00;14.40;;;6.70;99.90;;;;;;4234113;28;20090;-86
2022/11/30 04:55:09;;;;;;;41.78;15.07;;;6.60;99.90;;;;;;4234261;28;20044;-85
2022/11/30 04:57:09;;;;;;;48.00;16.00;;;6.60;99.90;;;;;;4234227;28;20568;-86
2022/11/30 04:59:12;;;;;;;51.33;14.93;;;6.60;99.90;;;;;;4234097;28;20483;-86
2022/11/30 05:01:13;;;;;;;42.72;15.80;;;6.60;99.90;;;;;;4234347;28;20101;-86
2022/11/30 05:03:14;;;;;;;47.90;16.42;;;6.60;99.90;;;;;;4252733;27;20439;-86
2022/11/30 05:05:14;;;;;;;41.45;15.20;;;6.60;99.90;;;;;;4252630;27;20086;-86
2022/11/30 05:07:15;;;;;;;56.95;16.33;;;6.60;99.90;;;;;;4233550;28;20048;-86
2022/11/30 05:09:16;;;;;;;42.00;15.18;;;6.50;99.90;;;;;;4234364;28;20127;-86
2022/11/30 05:11:17;;;;;;;45.67;16.45;;;6.50;99.90;;;;;;4252139;27;20414;-86
2022/11/30 05:13:18;;;;;;;42.50;14.45;;;6.50;99.90;;;;;;4233865;28;20408;-86
2022/11/30 05:15:19;;;;;;;44.38;14.18;;;6.50;99.90;;;;;;4234652;28;20055;-86
2022/11/30 05:17:20;;;;;;;49.25;16.05;;;6.50;99.90;;;;;;4252322;27;20375;-86
2022/11/30 05:19:22;;;;;;;36.35;14.02;;;6.50;99.90;;;;;;4217181;28;20063;-86
2022/11/30 05:21:23;;;;;;;44.72;15.52;;;6.50;99.90;;;;;;4251412;27;20035;-85
2022/11/30 05:23:24;;;;;;;45.80;14.88;;;6.70;99.90;;;;;;4233568;28;20525;-85
2022/11/30 05:25:24;;;;;;;38.95;14.73;;;6.50;99.90;;;;;;4216531;28;20484;-86
2022/11/30 05:27:25;;;;;;;36.38;14.30;;;6.50;99.90;;;;;;4215327;28;20149;-86
2022/11/30 05:29:26;;;;;;;35.45;12.57;;;6.50;99.90;;;;;;4222727;28;20052;-86
2022/11/30 05:31:28;;;;;;;36.25;12.20;;;6.50;99.90;;;;;;4251450;27;20047;-87
2022/11/30 05:33:28;;;;;;;33.65;13.27;;;6.50;99.90;;;;;;4245945;27;20031;-87
2022/11/30 05:35:29;;;;;;;42.60;14.18;;;6.50;99.90;;;;;;4216802;28;20370;-87
2022/11/30 05:37:30;;;;;;;36.25;13.60;;;6.50;99.90;;;;;;4217249;28;20051;-88
2022/11/30 05:39:31;;;;;;;45.20;13.43;;;6.50;99.90;;;;;;4234560;28;20452;-88
2022/11/30 05:41:32;;;;;;;40.53;14.20;;;6.50;99.90;;;;;;4237323;28;20075;-85
2022/11/30 05:43:32;;;;;;;39.60;13.85;;;6.50;99.90;;;;;;4216778;28;20040;-86
2022/11/30 05:45:33;;;;;;;39.50;13.98;;;6.40;99.90;;;;;;4234200;28;20071;-86
2022/11/30 05:47:34;;;;;;;39.25;14.70;;;6.40;99.90;;;;;;4233557;28;20044;-87
2022/11/30 05:49:34;;;;;;;39.13;13.25;;;6.40;99.90;;;;;;4199442;28;20493;-86
2022/11/30 05:51:35;;;;;;;41.00;14.43;;;6.40;99.90;;;;;;4234112;28;20153;-87
2022/11/30 05:53:38;;;;;;;34.13;13.32;;;6.40;99.90;;;;;;4241137;27;20039;-87
2022/11/30 05:55:38;;;;;;;36.88;14.10;;;6.40;99.90;;;;;;4224086;28;20051;-87
2022/11/30 05:57:39;;;;;;;37.13;12.90;;;6.40;99.90;;;;;;4199669;28;20044;-87
2022/11/30 05:59:40;;;;;;;44.85;13.68;;;6.40;99.90;;;;;;4208656;28;20047;-86
2022/11/30 06:01:41;;;;;;;36.78;13.38;;;6.40;99.90;;;;;;4234133;28;20051;-87
2022/11/30 06:03:42;;;;;;;35.53;13.10;;;6.40;99.90;;;;;;4234883;28;20058;-86
2022/11/30 06:05:42;;;;;;;38.15;13.07;;;6.40;99.90;;;;;;4252991;27;20046;-86
2022/11/30 06:07:44;;;;;;;32.47;12.43;;;6.40;99.90;;;;;;4218447;28;20098;-87
2022/11/30 06:09:45;;;;;;;31.63;12.25;;;6.40;99.90;;;;;;4235891;28;20170;-87
2022/11/30 06:11:46;;;;;;;37.67;13.38;;;6.40;99.90;;;;;;4218480;28;20484;-87
2022/11/30 06:13:46;;;;;;;39.72;14.13;;;6.40;99.90;;;;;;4221968;28;20044;-87
2022/11/30 06:15:48;;;;;;;42.15;12.85;;;6.40;99.90;;;;;;4203757;28;20101;-86
2022/11/30 06:17:49;;;;;;;32.78;13.52;;;6.40;99.90;;;;;;4238182;28;20040;-87
2022/11/30 06:19:51;;;;;;;35.78;13.30;;;6.40;99.90;;;;;;4217941;28;20427;-86
2022/11/30 06:21:52;;;;;;;37.75;13.20;;;6.40;99.90;;;;;;4215736;28;20048;-87
2022/11/30 06:23:54;;;;;;;32.95;12.90;;;6.40;99.90;;;;;;4215942;28;20558;-86
2022/11/30 06:25:55;;;;;;;34.28;12.82;;;6.40;99.90;;;;;;4245544;27;20080;-86
2022/11/30 06:27:56;;;;;;;36.65;14.60;;;6.40;99.90;;;;;;4234822;27;20035;-87
2022/11/30 06:29:57;;;;;;;36.20;12.77;;;6.40;99.90;;;;;;4233764;27;20043;-87
2022/11/30 06:31:58;;;;;;;33.45;12.52;;;6.30;99.90;;;;;;4236321;27;20083;-87
2022/11/30 06:33:59;;;;;;;33.50;13.43;;;6.40;99.90;;;;;;4250988;27;20070;-86
2022/11/30 06:36:00;;;;;;;32.50;13.00;;;6.40;99.90;;;;;;4251044;27;20054;-87
2022/11/30 06:38:01;;;;;;;28.85;12.35;;;6.30;99.90;;;;;;4251202;27;20039;-87
2022/11/30 06:40:02;;;;;;;30.65;11.10;;;6.30;99.90;;;;;;4232224;28;20135;-85
2022/11/30 06:42:03;;;;;;;32.83;12.32;;;6.30;99.90;;;;;;4219611;28;20047;-85
2022/11/30 06:44:08;;;;;;;27.02;11.35;;;6.40;99.90;;;;;;4214666;28;20658;-84
2022/11/30 06:46:10;;;;;;;28.65;11.07;;;6.40;99.90;;;;;;4214582;28;20086;-84
2022/11/30 06:48:11;;;;;;;24.10;10.52;;;6.40;99.90;;;;;;4231662;28;20043;-86
2022/11/30 06:50:13;;;;;;;31.23;12.32;;;6.40;99.90;;;;;;4230326;28;20071;-85
2022/11/30 06:52:14;;;;;;;29.55;11.68;;;6.40;99.90;;;;;;4212531;28;20043;-85
2022/11/30 06:54:16;;;;;;;30.80;11.95;;;6.30;99.90;;;;;;4230625;28;20047;-86
2022/11/30 06:56:16;;;;;;;26.30;11.00;;;6.30;99.90;;;;;;4230863;28;20039;-85
2022/11/30 06:58:19;;;;;;;27.40;11.27;;;6.30;99.90;;;;;;4213468;28;20294;-85
2022/11/30 07:00:20;;;;;;;27.60;10.88;;;6.30;99.90;;;;;;4213137;28;20052;-86
2022/11/30 07:02:22;;;;;;;25.58;10.05;;;6.30;99.90;;;;;;4212442;28;20055;-85
2022/11/30 07:04:23;;;;;;;23.77;9.43;;;6.30;99.90;;;;;;4196417;28;20055;-85
2022/11/30 07:06:24;;;;;;;27.80;11.13;;;6.30;99.90;;;;;;4214676;28;20500;-85
2022/11/30 07:08:26;;;;;;;22.10;9.90;;;6.30;99.90;;;;;;4214297;28;20051;-84
2022/11/30 07:10:27;;;;;;;26.95;11.65;;;6.30;99.90;;;;;;4197866;28;20496;-85
2022/11/30 07:12:27;;;;;;;24.23;10.00;;;6.30;99.90;;;;;;4216352;28;20036;-85
2022/11/30 07:14:29;;;;;;;30.20;11.52;;;6.30;99.90;;;;;;4214750;28;20048;-86
2022/11/30 07:16:30;;;;;;;26.77;11.43;;;6.30;99.90;;;;;;4215905;28;20051;-86
2022/11/30 07:18:33;;;;;;;24.27;9.93;;;6.30;99.90;;;;;;4215533;28;20052;-86
2022/11/30 07:20:34;;;;;;;23.27;10.45;;;6.30;99.90;;;;;;4214921;28;20058;-85
2022/11/30 07:22:35;;;;;;;23.73;9.85;;;6.30;99.90;;;;;;4234181;28;20073;-86
2022/11/30 07:26:55;;;;;;;;;;;6.30;99.90;;;;;;4214529;28;20492;-85
2022/11/30 07:28:57;;;;;;;22.00;9.45;;;6.30;99.90;;;;;;4213779;28;19927;-85
2022/11/30 07:30:58;;;;;;;28.75;9.60;;;6.20;99.90;;;;;;4213599;28;20101;-85
2022/11/30 07:32:59;;;;;;;22.52;9.10;;;6.30;99.90;;;;;;4213797;28;20036;-85
2022/11/30 07:35:00;;;;;;;21.58;9.60;;;6.20;99.90;;;;;;4231694;28;20051;-85
2022/11/30 07:37:02;;;;;;;24.65;8.85;;;6.20;99.90;;;;;;4196577;28;20541;-85
2022/11/30 07:39:03;;;;;;;24.80;9.13;;;6.60;99.90;;;;;;4196938;28;20501;-85
2022/11/30 07:41:04;;;;;;;22.10;8.15;;;6.30;99.90;;;;;;4232178;28;20046;-85
2022/11/30 07:43:05;;;;;;;25.98;10.80;;;6.30;99.90;;;;;;4231531;28;20480;-85
2022/11/30 07:45:06;;;;;;;20.80;9.98;;;6.20;99.90;;;;;;4231154;28;20036;-85
2022/11/30 07:47:06;;;;;;;23.67;11.05;;;6.20;99.90;;;;;;4231632;28;20401;-85
2022/11/30 07:49:09;;;;;;;18.23;8.82;;;6.20;99.90;;;;;;4214031;28;20048;-85
2022/11/30 07:51:13;;;;;;;21.05;9.27;;;6.30;99.90;;;;;;4231633;28;20087;-85
2022/11/30 07:53:15;;;;;;;25.35;10.38;;;6.30;99.90;;;;;;4214143;28;20500;-86
2022/11/30 07:55:16;;;;;;;21.88;10.00;;;6.20;99.90;;;;;;4231756;28;20051;-85
2022/11/30 07:57:18;;;;;;;25.35;9.85;;;6.30;99.90;;;;;;4232179;28;20047;-85
2022/11/30 07:59:20;;;;;;;21.33;9.15;;;6.20;99.90;;;;;;4214155;28;20071;-85
2022/11/30 08:01:22;;;;;;;22.98;9.75;;;6.20;99.90;;;;;;4233511;28;20132;-85
2022/11/30 08:03:23;;;;;;;19.83;9.50;;;6.20;99.90;;;;;;4197997;28;20055;-85
2022/11/30 08:05:23;;;;;;;23.08;9.77;;;6.70;99.90;;;;;;4215313;28;20107;-85
2022/11/30 08:07:24;;;;;;;23.05;10.45;;;6.20;99.90;;;;;;4213944;28;20431;-84
2022/11/30 08:09:24;;;;;;;22.48;9.85;;;6.30;99.90;;;;;;4232738;28;20036;-85
2022/11/30 08:11:29;;;;;;;19.90;10.40;;;6.20;99.90;;;;;;4232502;28;20047;-85
2022/11/30 08:13:30;;;;;;;19.75;8.95;;;6.20;99.90;;;;;;4198196;28;20071;-85
2022/11/30 08:15:31;;;;;;;19.23;9.80;;;6.20;99.90;;;;;;4199485;28;20060;-84
2022/11/30 08:17:32;;;;;;;22.65;9.80;;;6.40;99.90;;;;;;4200572;28;20059;-86
2022/11/30 08:19:32;;;;;;;26.17;10.60;;;6.20;99.90;;;;;;4218347;28;20040;-85
2022/11/30 08:21:33;;;;;;;22.80;10.60;;;6.30;99.90;;;;;;4216963;28;20584;-86
2022/11/30 08:23:38;;;;;;;24.42;11.30;;;6.20;99.90;;;;;;4217221;28;20044;-85
2022/11/30 08:25:38;;;;;;;23.58;10.55;;;6.20;99.90;;;;;;4217192;28;20480;-85
2022/11/30 08:27:41;;;;;;;25.35;9.70;;;6.30;99.90;;;;;;4235057;28;20071;-86
2022/11/30 08:29:43;;;;;;;25.73;11.48;;;6.30;99.90;;;;;;4250472;27;20071;-86
2022/11/30 08:31:43;;;;;;;20.60;9.70;;;6.70;99.90;;;;;;4233351;28;20503;-86
2022/11/30 08:33:45;;;;;;;23.42;9.98;;;6.30;99.90;;;;;;4243230;27;20027;-86
2022/11/30 08:35:47;;;;;;;25.92;9.48;;;6.70;99.90;;;;;;4252228;27;20043;-86
2022/11/30 08:37:48;;;;;;;22.55;10.25;;;6.30;99.90;;;;;;4251908;27;20035;-86
2022/11/30 08:39:48;;;;;;;20.92;10.32;;;6.30;99.90;;;;;;4251486;27;20041;-86
2022/11/30 08:41:50;;;;;;;25.58;10.20;;;6.30;99.90;;;;;;4217085;28;20484;-88
2022/11/30 08:43:52;;;;;;;25.10;11.88;;;6.30;99.90;;;;;;4217302;28;20054;-87
2022/11/30 08:45:54;;;;;;;25.33;11.05;;;6.30;99.90;;;;;;4234065;28;20069;-87
2022/11/30 08:47:55;;;;;;;23.17;10.43;;;6.30;99.90;;;;;;4252166;27;20138;-87
2022/11/30 08:49:56;;;;;;;28.77;12.32;;;6.30;99.90;;;;;;4233796;28;20097;-87
2022/11/30 08:51:57;;;;;;;26.63;12.05;;;6.40;99.90;;;;;;4252252;27;20498;-87
2022/11/30 08:53:58;;;;;;;24.88;11.10;;;6.40;99.90;;;;;;4234305;28;20043;-86
2022/11/30 08:56:04;;;;;;;24.48;10.93;;;6.50;99.90;;;;;;4217522;28;20052;-87
2022/11/30 08:58:05;;;;;;;30.60;13.10;;;6.40;99.90;;;;;;4253391;27;20054;-86
2022/11/30 09:00:06;;;;;;;32.88;12.68;;;6.40;99.90;;;;;;4233948;28;20054;-87
2022/11/30 09:02:18;;;;;;;27.27;12.13;;;6.50;99.90;;;;;;4251492;27;20096;-86
2022/11/30 09:04:19;;;;;;;27.75;11.32;;;6.50;99.90;;;;;;4233608;28;20052;-87
2022/11/30 09:06:22;;;;;;;31.50;12.65;;;6.50;99.90;;;;;;4234385;28;20412;-87
2022/11/30 09:08:23;;;;;;;29.08;11.55;;;6.50;99.90;;;;;;4234518;28;20048;-87
2022/11/30 09:10:24;;;;;;;34.42;13.57;;;6.50;99.90;;;;;;4234234;28;20062;-86
2022/11/30 09:12:25;;;;;;;30.92;12.07;;;6.50;99.90;;;;;;4234014;28;20516;-87
2022/11/30 09:14:26;;;;;;;28.13;12.57;;;6.60;99.90;;;;;;4233250;28;20062;-88
2022/11/30 09:16:28;;;;;;;30.73;12.27;;;6.50;99.90;;;;;;4245505;27;20122;-86
2022/11/30 09:18:33;;;;;;;29.17;12.18;;;6.60;99.90;;;;;;4244553;27;20151;-86
2022/11/30 09:20:34;;;;;;;33.80;14.02;;;6.60;99.90;;;;;;4218091;28;20052;-87
2022/11/30 09:22:35;;;;;;;28.50;11.30;;;6.60;99.90;;;;;;4217309;28;20048;-86
2022/11/30 09:24:36;;;;;;;29.77;11.85;;;6.60;99.90;;;;;;4216312;28;20080;-87
2022/11/30 09:26:37;;;;;;;27.15;11.75;;;6.70;99.90;;;;;;4250755;27;20099;-86
2022/11/30 09:28:39;;;;;;;31.23;13.13;;;6.60;99.90;;;;;;4233142;28;20054;-85
2022/11/30 09:30:39;;;;;;;29.05;12.38;;;7.10;99.90;;;;;;4216507;28;20052;-85
2022/11/30 09:32:41;;;;;;;30.85;13.07;;;6.70;99.90;;;;;;4233036;28;20170;-87
2022/11/30 09:34:43;;;;;;;34.83;13.32;;;6.70;99.90;;;;;;4202284;28;20045;-88
2022/11/30 09:36:44;;;;;;;31.05;12.25;;;6.70;99.90;;;;;;4235136;28;20119;-88
2022/11/30 09:38:46;;;;;;;35.20;14.30;;;6.70;99.90;;;;;;4235036;28;20044;-86
2022/11/30 09:40:56;;;;;;;30.85;13.07;;;6.70;99.90;;;;;;4216097;28;20543;-87
2022/11/30 09:43:07;;;;;;;33.55;13.23;;;6.70;99.90;;;;;;4252431;27;20054;-86
2022/11/30 09:45:28;;;;;;;30.77;12.82;;;6.70;99.90;;;;;;4232728;28;20461;-87
2022/11/30 09:47:40;;;;;;;29.95;12.48;;;6.70;99.90;;;;;;4233665;28;20047;-87
2022/11/30 09:49:46;;;;;;;34.47;13.27;;;6.80;99.90;;;;;;4237839;28;20044;-88
2022/11/30 09:51:48;;;;;;;33.85;14.23;;;6.80;99.90;;;;;;4233246;28;20047;-88
2022/11/30 09:54:05;;;;;;;32.50;12.75;;;6.80;99.90;;;;;;4233705;28;20054;-87
2022/11/30 09:56:23;;;;;;;34.17;13.63;;;6.80;99.90;;;;;;4232845;28;20492;-87
2022/11/30 09:58:32;;;;;;;36.55;15.98;;;6.80;99.90;;;;;;4233309;28;20102;-86
2022/11/30 10:00:33;;;;;;;;;;;6.80;99.90;;;;;;4234234;28;20040;-86
2022/11/30 10:02:37;;;;;;;35.30;13.02;;;6.80;99.90;;;;;;4233323;28;20292;-87
2022/11/30 10:04:38;;;;;;;36.42;14.75;;;6.90;99.90;;;;;;4233546;28;20047;-88
2022/11/30 10:06:53;;;;;;;34.88;13.90;;;6.90;99.90;;;;;;4234724;28;20040;-87
2022/11/30 10:09:15;;;;;;;34.78;14.45;;;6.90;99.90;;;;;;4216781;28;20101;-86
2022/11/30 10:11:46;;;;;;;31.17;12.55;;;6.90;99.90;;;;;;4233002;28;20071;-86
2022/11/30 10:14:16;;;;;;;38.00;14.52;;;6.90;99.90;;;;;;4232937;28;20042;-87
2022/11/30 10:16:37;;;;;;;35.45;15.27;;;6.90;99.90;;;;;;4234224;28;20964;-86
2022/11/30 10:19:14;;;;;;;38.42;14.10;;;6.90;99.90;;;;;;4232960;28;20073;-86
2022/11/30 10:21:15;;;;;;;32.22;13.90;;;6.90;99.90;;;;;;4233966;28;20035;-86
2022/11/30 10:23:28;;;;;;;30.15;14.02;;;6.90;99.90;;;;;;4227101;28;20047;-88
2022/11/30 10:25:44;;;;;;;33.25;13.45;;;6.90;99.90;;;;;;4217496;28;20044;-87
2022/11/30 10:27:50;;;;;;;32.83;13.93;;;6.90;99.90;;;;;;4217271;28;20135;-86
2022/11/30 10:29:54;;;;;;;29.77;13.63;;;6.90;99.90;;;;;;4217732;28;20044;-87
2022/11/30 10:31:58;;;;;;;30.35;12.88;;;7.00;99.90;;;;;;4216874;28;20043;-87
2022/11/30 10:34:19;;;;;;;30.90;12.75;;;6.90;99.90;;;;;;4200077;28;20087;-86
2022/11/30 10:36:23;;;;;;;29.33;12.18;;;7.00;99.90;;;;;;4217448;28;20044;-87